Time;durP1;ratioP1;P1;durP2;ratioP2;P2;SDS_P1;SDS_P2;PMS_P1;PMS_P2;Temp;Humidity;BMP_temperature;BMP_pressure;BME280_temperature;BME280_humidity;BME280_pressure;Samples;Min_cycle;Max_cycle;Signal;HPM_P1;HPM_P2
2021/12/01 00:00:22;;;;;;;1.10;1.00;;;5.10;98.00;;;;;;5013453;28;20463;-63
2021/12/01 00:02:53;;;;;;;1.10;1.00;;;5.00;98.00;;;;;;5013354;28;20468;-63
2021/12/01 00:05:21;;;;;;;1.10;1.00;;;5.00;98.00;;;;;;5013498;28;20958;-63
2021/12/01 00:07:49;;;;;;;1.10;1.00;;;5.00;98.00;;;;;;5013383;28;20483;-63
2021/12/01 00:10:18;;;;;;;1.10;1.00;;;5.00;98.00;;;;;;5013257;28;20490;-63
2021/12/01 00:12:47;;;;;;;1.10;0.90;;;5.10;98.00;;;;;;5013246;28;20509;-63
2021/12/01 00:15:15;;;;;;;1.10;0.90;;;5.10;98.00;;;;;;5012894;28;20467;-64
2021/12/01 00:17:42;;;;;;;1.10;0.90;;;5.10;98.00;;;;;;5012798;28;20802;-64
2021/12/01 00:20:12;;;;;;;1.10;1.00;;;5.00;98.00;;;;;;5012960;28;20515;-63
2021/12/01 00:22:40;;;;;;;1.30;1.20;;;5.10;98.00;;;;;;5012787;28;20878;-64
2021/12/01 00:25:10;;;;;;;1.10;1.10;;;5.10;98.00;;;;;;5012994;28;20463;-63
2021/12/01 00:27:37;;;;;;;1.10;1.00;;;5.10;98.00;;;;;;5012745;28;20538;-63
2021/12/01 00:30:08;;;;;;;1.10;1.00;;;5.10;98.00;;;;;;5012448;28;20510;-63
2021/12/01 00:32:35;;;;;;;1.10;0.90;;;5.10;98.00;;;;;;5012701;28;20461;-64
2021/12/01 00:35:05;;;;;;;1.10;0.90;;;5.10;98.00;;;;;;5012819;28;20887;-63
2021/12/01 00:37:33;;;;;;;1.10;1.00;;;5.10;98.00;;;;;;5012879;28;20510;-64
2021/12/01 00:40:00;;;;;;;1.10;1.00;;;5.10;98.00;;;;;;5012708;28;20464;-63
2021/12/01 00:42:27;;;;;;;1.10;0.90;;;5.10;98.00;;;;;;5012654;28;20471;-63
2021/12/01 00:44:58;;;;;;;1.10;1.00;;;5.10;98.00;;;;;;5012771;28;20517;-63
2021/12/01 00:47:41;;;;;;;1.10;0.90;;;5.10;98.00;;;;;;5011270;28;20456;-62
2021/12/01 00:50:09;;;;;;;1.10;1.00;;;5.10;98.00;;;;;;5012487;28;20466;-63
2021/12/01 00:52:36;;;;;;;1.10;1.00;;;5.10;98.00;;;;;;5012268;28;20511;-63
2021/12/01 00:55:04;;;;;;;1.10;0.90;;;5.10;98.00;;;;;;5011912;28;20589;-63
2021/12/01 00:57:31;;;;;;;1.10;0.90;;;5.20;98.00;;;;;;5011774;28;20510;-63
2021/12/01 00:59:58;;;;;;;1.10;0.97;;;5.20;98.00;;;;;;5012323;28;20455;-63
2021/12/01 01:02:27;;;;;;;1.10;1.00;;;5.20;98.00;;;;;;5012298;28;20543;-63
2021/12/01 01:04:54;;;;;;;1.10;0.90;;;5.20;98.00;;;;;;5012348;28;20521;-62
2021/12/01 01:07:21;;;;;;;1.10;0.90;;;5.20;98.00;;;;;;5012071;28;20456;-63
2021/12/01 01:09:48;;;;;;;1.10;0.93;;;5.20;98.00;;;;;;5012080;28;21156;-64
2021/12/01 01:18:05;;;;;;;1.43;1.10;;;5.10;98.00;;;;;;5011375;28;20494;-63
2021/12/01 01:20:33;;;;;;;1.10;0.90;;;5.10;98.00;;;;;;5012120;28;20467;-63
2021/12/01 01:23:00;;;;;;;1.10;0.90;;;5.10;98.00;;;;;;5012143;28;20510;-63
2021/12/01 01:25:28;;;;;;;1.10;1.00;;;5.10;98.00;;;;;;5012345;28;20456;-63
2021/12/01 01:27:55;;;;;;;1.10;1.00;;;5.10;98.00;;;;;;5012290;28;20488;-63
2021/12/01 01:30:22;;;;;;;1.10;1.00;;;5.20;98.00;;;;;;5011937;28;20867;-63
2021/12/01 01:32:50;;;;;;;1.10;1.00;;;5.10;98.00;;;;;;5012134;28;20870;-63
2021/12/01 01:35:18;;;;;;;1.10;1.00;;;5.20;98.00;;;;;;5011931;28;20545;-63
2021/12/01 01:37:46;;;;;;;1.10;1.00;;;5.20;98.00;;;;;;5011937;28;20455;-63
2021/12/01 01:40:14;;;;;;;1.10;0.90;;;5.20;98.00;;;;;;5012059;28;20854;-63
2021/12/01 01:42:41;;;;;;;1.63;1.50;;;5.20;98.00;;;;;;5010519;28;20507;-63
2021/12/01 01:45:10;;;;;;;1.10;0.90;;;5.20;98.00;;;;;;5011727;28;20469;-63
2021/12/01 01:47:46;;;;;;;1.10;0.90;;;5.20;98.00;;;;;;5010493;28;20499;-64
2021/12/01 01:50:25;;;;;;;1.10;0.90;;;5.20;98.00;;;;;;5011728;28;20517;-63
2021/12/01 01:52:53;;;;;;;1.20;1.00;;;5.20;98.00;;;;;;5011879;28;20899;-63
2021/12/01 01:55:23;;;;;;;1.10;0.90;;;5.20;98.00;;;;;;5011721;28;20452;-63
2021/12/01 01:57:51;;;;;;;1.10;0.93;;;5.30;98.00;;;;;;5010356;28;20465;-63
2021/12/01 02:00:21;;;;;;;1.40;1.00;;;5.20;98.00;;;;;;5010455;28;20470;-64
2021/12/01 02:02:49;;;;;;;1.10;0.90;;;5.20;98.00;;;;;;5010959;28;20474;-63
2021/12/01 02:05:16;;;;;;;1.10;1.10;;;5.30;98.00;;;;;;5010773;28;20530;-64
2021/12/01 02:07:44;;;;;;;1.10;0.90;;;5.30;98.00;;;;;;5010783;28;20465;-63
2021/12/01 02:10:15;;;;;;;1.10;1.00;;;5.20;98.00;;;;;;5010896;28;20499;-63
2021/12/01 02:12:42;;;;;;;1.10;0.90;;;5.20;98.00;;;;;;5010831;28;20567;-64
2021/12/01 02:15:10;;;;;;;1.10;1.00;;;5.30;98.00;;;;;;5010625;28;20483;-64
2021/12/01 02:17:38;;;;;;;1.10;0.90;;;5.30;98.00;;;;;;5010908;28;20691;-63
2021/12/01 02:20:12;;;;;;;1.10;1.00;;;5.30;98.00;;;;;;5010802;28;20451;-63
2021/12/01 02:22:41;;;;;;;1.77;1.20;;;5.30;98.00;;;;;;5010684;28;20513;-63
2021/12/01 02:25:09;;;;;;;1.40;1.10;;;5.30;98.00;;;;;;5009727;28;21004;-63
2021/12/01 02:27:37;;;;;;;1.10;1.00;;;5.40;98.00;;;;;;5014033;28;20471;-63
2021/12/01 02:30:05;;;;;;;1.10;1.00;;;5.40;98.00;;;;;;5012838;28;20491;-63
2021/12/01 02:32:33;;;;;;;1.13;1.00;;;5.40;98.00;;;;;;5014207;28;20509;-63
2021/12/01 02:35:00;;;;;;;1.10;1.10;;;5.40;98.00;;;;;;5014528;28;20466;-63
2021/12/01 02:37:28;;;;;;;1.10;1.00;;;5.50;98.00;;;;;;5014473;28;20463;-63
2021/12/01 02:39:57;;;;;;;1.10;0.90;;;5.50;98.00;;;;;;5014513;28;20942;-65
2021/12/01 02:42:24;;;;;;;1.10;0.97;;;5.50;98.00;;;;;;5015004;28;20460;-64
2021/12/01 02:44:51;;;;;;;1.10;1.00;;;5.50;98.00;;;;;;5014774;28;20510;-65
2021/12/01 02:47:18;;;;;;;1.10;0.90;;;5.50;98.00;;;;;;5015306;28;20543;-63
2021/12/01 02:49:45;;;;;;;1.50;1.17;;;5.50;98.00;;;;;;5014163;28;20487;-64
2021/12/01 02:52:15;;;;;;;1.10;1.00;;;5.50;98.00;;;;;;5014208;28;20463;-63
2021/12/01 02:54:43;;;;;;;1.10;1.00;;;5.50;98.00;;;;;;5014031;28;20514;-63
2021/12/01 02:57:12;;;;;;;1.10;0.90;;;5.50;98.00;;;;;;5014326;28;20463;-64
2021/12/01 02:59:40;;;;;;;1.10;1.10;;;5.50;98.00;;;;;;5014003;28;21006;-64
2021/12/01 03:02:08;;;;;;;1.10;1.00;;;5.60;98.00;;;;;;5013781;28;20515;-63
2021/12/01 03:04:36;;;;;;;1.10;0.90;;;5.50;98.00;;;;;;5013596;28;20518;-62
2021/12/01 03:07:04;;;;;;;1.10;0.90;;;5.60;98.00;;;;;;5013859;28;20513;-63
2021/12/01 03:09:31;;;;;;;1.10;0.90;;;5.50;98.00;;;;;;5013676;28;20480;-64
2021/12/01 03:11:59;;;;;;;1.10;1.00;;;5.50;98.00;;;;;;5013472;28;20464;-63
2021/12/01 03:14:27;;;;;;;1.10;1.00;;;5.60;98.00;;;;;;5013363;28;20519;-63
2021/12/01 03:16:55;;;;;;;1.10;1.00;;;5.60;98.00;;;;;;5013423;28;20452;-63
2021/12/01 03:19:22;;;;;;;1.10;1.00;;;5.60;98.00;;;;;;5013283;28;20547;-63
2021/12/01 03:21:49;;;;;;;1.10;1.00;;;5.50;98.00;;;;;;5013395;28;20470;-64
2021/12/01 03:24:16;;;;;;;1.10;0.90;;;5.50;98.00;;;;;;5013245;28;20514;-64
2021/12/01 03:26:44;;;;;;;1.27;1.10;;;5.50;98.00;;;;;;5013199;28;20467;-63
2021/12/01 03:29:14;;;;;;;1.10;1.00;;;5.60;98.00;;;;;;5013033;28;20495;-65
2021/12/01 03:31:43;;;;;;;1.13;1.00;;;5.60;98.00;;;;;;5013152;28;20522;-63
2021/12/01 03:34:11;;;;;;;1.10;0.90;;;5.60;98.00;;;;;;5013083;28;20554;-64
2021/12/01 03:36:39;;;;;;;1.10;0.90;;;5.60;98.00;;;;;;5012516;28;20491;-63
2021/12/01 03:39:06;;;;;;;1.10;1.00;;;5.70;98.00;;;;;;5013149;28;20459;-63
2021/12/01 03:41:34;;;;;;;1.10;1.00;;;5.70;98.00;;;;;;5012914;28;20467;-64
2021/12/01 03:44:03;;;;;;;1.10;0.90;;;5.70;98.00;;;;;;5011729;28;20488;-63
2021/12/01 03:46:30;;;;;;;1.50;1.00;;;5.80;98.00;;;;;;5012820;28;20488;-64
2021/12/01 03:48:58;;;;;;;1.10;1.00;;;5.80;98.00;;;;;;5012525;28;20521;-64
2021/12/01 03:51:25;;;;;;;1.10;1.00;;;5.80;98.00;;;;;;5012744;28;20518;-63
2021/12/01 03:53:52;;;;;;;1.20;1.00;;;5.80;98.00;;;;;;5012787;28;20460;-63
2021/12/01 03:56:20;;;;;;;1.10;1.00;;;5.70;98.00;;;;;;5012510;28;20882;-64
2021/12/01 03:58:47;;;;;;;1.13;1.00;;;5.70;98.00;;;;;;5012700;28;20460;-63
2021/12/01 04:01:15;;;;;;;1.10;1.00;;;5.80;98.00;;;;;;5012596;28;20518;-63
2021/12/01 04:03:42;;;;;;;1.10;0.90;;;5.80;98.00;;;;;;5012623;28;20472;-64
2021/12/01 04:06:11;;;;;;;1.20;1.17;;;5.90;98.00;;;;;;5012876;28;20458;-65
2021/12/01 04:08:39;;;;;;;1.10;1.00;;;5.80;98.00;;;;;;5012869;28;20490;-63
2021/12/01 04:11:06;;;;;;;1.10;0.90;;;5.70;98.00;;;;;;5012518;28;20456;-63
2021/12/01 04:13:33;;;;;;;1.10;1.00;;;5.80;98.00;;;;;;5012566;28;20518;-63
2021/12/01 04:16:00;;;;;;;1.10;1.00;;;5.80;98.00;;;;;;5012072;28;20465;-63
2021/12/01 04:18:28;;;;;;;1.10;0.90;;;5.80;98.00;;;;;;5012562;28;21021;-63
2021/12/01 04:20:55;;;;;;;1.20;1.00;;;5.80;98.00;;;;;;5012271;28;20523;-64
2021/12/01 04:23:23;;;;;;;1.10;1.00;;;5.80;98.00;;;;;;5012297;28;20465;-63
2021/12/01 04:25:51;;;;;;;1.10;1.00;;;5.80;98.00;;;;;;5012143;28;20983;-64
2021/12/01 04:28:18;;;;;;;1.10;1.00;;;5.90;98.00;;;;;;5012124;28;20547;-65
2021/12/01 04:30:46;;;;;;;1.10;1.00;;;5.90;98.00;;;;;;5011832;28;20483;-62
2021/12/01 04:33:13;;;;;;;1.10;1.00;;;5.90;98.00;;;;;;5012211;28;20461;-64
2021/12/01 04:35:40;;;;;;;1.10;0.90;;;5.90;98.00;;;;;;5011810;28;20983;-63
2021/12/01 04:38:07;;;;;;;1.10;1.00;;;5.90;98.00;;;;;;5011932;28;20543;-63
2021/12/01 04:40:35;;;;;;;1.10;1.00;;;5.90;98.00;;;;;;5011798;28;20459;-63
2021/12/01 04:43:03;;;;;;;1.10;0.90;;;5.90;98.00;;;;;;5011978;28;20494;-63
2021/12/01 04:45:31;;;;;;;1.10;0.90;;;5.90;98.00;;;;;;5011553;28;20834;-64
2021/12/01 04:47:59;;;;;;;1.10;0.90;;;5.90;98.00;;;;;;5010115;28;20950;-63
2021/12/01 04:50:27;;;;;;;1.20;1.10;;;6.00;98.00;;;;;;5011504;28;20561;-62
2021/12/01 04:52:57;;;;;;;1.10;0.90;;;6.00;98.00;;;;;;5011725;28;20515;-63
2021/12/01 04:55:26;;;;;;;1.10;1.00;;;6.00;98.00;;;;;;5011753;28;20464;-63
2021/12/01 04:57:57;;;;;;;1.10;0.90;;;6.00;98.00;;;;;;5011771;28;20462;-65
2021/12/01 05:00:26;;;;;;;1.10;0.90;;;6.00;98.00;;;;;;5011666;28;20459;-63
2021/12/01 05:02:55;;;;;;;1.10;1.00;;;6.00;98.00;;;;;;5011415;28;20597;-63
2021/12/01 05:05:22;;;;;;;1.10;0.90;;;6.00;98.00;;;;;;5010196;28;20464;-63
2021/12/01 05:07:51;;;;;;;1.10;0.90;;;6.00;98.00;;;;;;5011554;28;20908;-62
2021/12/01 05:10:18;;;;;;;1.10;1.00;;;6.20;98.00;;;;;;5011509;28;20488;-63
2021/12/01 05:12:45;;;;;;;1.10;0.93;;;6.20;98.00;;;;;;5011496;28;20471;-63
2021/12/01 05:15:14;;;;;;;1.10;1.00;;;6.20;98.00;;;;;;5011675;28;20461;-64
2021/12/01 05:17:41;;;;;;;1.10;0.90;;;6.20;98.00;;;;;;5011388;28;20464;-65
2021/12/01 05:20:11;;;;;;;1.10;0.90;;;6.20;98.00;;;;;;5011500;28;20502;-63
2021/12/01 05:22:39;;;;;;;1.10;1.00;;;6.20;98.00;;;;;;5011138;28;20822;-64
2021/12/01 05:25:06;;;;;;;1.10;1.00;;;6.30;98.00;;;;;;5011345;28;20465;-64
2021/12/01 05:27:33;;;;;;;1.13;1.00;;;6.30;98.00;;;;;;5011209;28;20468;-64
2021/12/01 05:30:03;;;;;;;1.10;1.00;;;6.30;98.00;;;;;;5011231;28;20520;-63
2021/12/01 05:32:32;;;;;;;1.10;0.90;;;6.30;98.00;;;;;;5011344;28;20851;-63
2021/12/01 05:35:00;;;;;;;1.10;0.90;;;6.30;98.00;;;;;;5011457;28;20545;-63
2021/12/01 05:37:27;;;;;;;1.10;1.00;;;6.30;98.00;;;;;;5011337;28;20456;-62
2021/12/01 05:39:54;;;;;;;1.10;1.00;;;6.30;98.00;;;;;;5010334;28;20461;-63
2021/12/01 05:42:21;;;;;;;1.20;1.00;;;6.40;98.00;;;;;;5011061;28;20619;-65
2021/12/01 05:44:49;;;;;;;1.10;0.90;;;6.40;98.00;;;;;;5011390;28;20520;-64
2021/12/01 05:47:16;;;;;;;1.20;0.90;;;6.40;98.00;;;;;;5011047;28;20461;-64
2021/12/01 05:49:45;;;;;;;1.10;0.90;;;6.40;98.00;;;;;;5011013;28;20844;-65
2021/12/01 05:52:14;;;;;;;1.10;0.90;;;6.40;98.00;;;;;;5011113;28;20453;-63
2021/12/01 05:54:43;;;;;;;1.10;0.90;;;6.40;98.00;;;;;;5011000;28;20534;-65
2021/12/01 05:57:12;;;;;;;1.10;1.00;;;6.30;98.00;;;;;;5010919;28;20465;-64
2021/12/01 05:59:40;;;;;;;1.73;1.30;;;6.30;98.00;;;;;;5010145;28;20466;-63
2021/12/01 06:02:08;;;;;;;1.10;0.90;;;6.30;98.00;;;;;;5014537;28;20524;-65
2021/12/01 06:04:35;;;;;;;1.10;0.90;;;6.30;98.00;;;;;;5015045;28;20456;-64
2021/12/01 06:07:03;;;;;;;1.10;0.90;;;6.20;98.00;;;;;;5014720;28;20515;-63
2021/12/01 06:09:30;;;;;;;1.10;1.00;;;6.20;98.00;;;;;;5014798;28;20906;-64
2021/12/01 06:11:58;;;;;;;1.20;1.00;;;6.30;98.00;;;;;;5014821;28;20848;-63
2021/12/01 06:14:25;;;;;;;1.10;0.90;;;6.30;98.00;;;;;;5013421;28;20861;-63
2021/12/01 06:16:53;;;;;;;1.20;1.10;;;6.30;98.00;;;;;;5014482;28;20465;-63
2021/12/01 06:19:21;;;;;;;1.10;1.00;;;6.40;98.00;;;;;;5014620;28;20521;-64
2021/12/01 06:21:48;;;;;;;1.10;0.90;;;6.50;98.00;;;;;;5014629;28;20878;-63
2021/12/01 06:24:16;;;;;;;1.10;0.90;;;6.50;98.00;;;;;;5014779;28;20518;-65
2021/12/01 06:26:43;;;;;;;1.13;1.00;;;6.50;98.00;;;;;;5013296;28;20545;-63
2021/12/01 06:29:12;;;;;;;1.20;1.10;;;6.50;98.00;;;;;;5014117;28;20464;-63
2021/12/01 06:31:39;;;;;;;1.20;1.00;;;6.60;98.00;;;;;;5013076;28;20894;-63
2021/12/01 06:34:07;;;;;;;1.10;0.90;;;6.50;98.00;;;;;;5014256;28;20847;-65
2021/12/01 06:36:34;;;;;;;1.20;1.00;;;6.60;98.00;;;;;;5014347;28;20459;-63
2021/12/01 06:39:02;;;;;;;1.20;1.10;;;6.60;98.00;;;;;;5014343;28;20469;-63
2021/12/01 06:41:30;;;;;;;1.10;1.00;;;6.60;98.00;;;;;;5014043;28;20953;-64
2021/12/01 06:43:58;;;;;;;2.17;1.10;;;6.60;98.00;;;;;;5014217;28;20465;-63
2021/12/01 06:46:25;;;;;;;1.20;1.00;;;6.50;98.00;;;;;;5013111;28;20470;-62
2021/12/01 06:48:52;;;;;;;1.20;1.00;;;6.50;98.00;;;;;;5014125;28;20470;-63
2021/12/01 06:51:19;;;;;;;1.20;0.90;;;6.50;98.00;;;;;;5013975;28;20490;-63
2021/12/01 06:53:46;;;;;;;1.20;0.90;;;6.50;98.00;;;;;;5014098;28;20971;-64
2021/12/01 06:56:16;;;;;;;1.10;0.90;;;6.50;98.00;;;;;;5014051;28;20465;-64
2021/12/01 06:58:44;;;;;;;1.20;1.00;;;6.60;98.00;;;;;;5014163;28;21167;-64
2021/12/01 07:01:12;;;;;;;1.20;1.00;;;6.50;98.00;;;;;;5014171;28;20483;-64
2021/12/01 07:03:39;;;;;;;1.10;0.90;;;6.50;98.00;;;;;;5012728;28;20486;-63
2021/12/01 07:06:08;;;;;;;2.03;1.40;;;6.40;98.00;;;;;;5013807;28;20946;-63
2021/12/01 07:08:36;;;;;;;1.20;1.00;;;6.50;98.00;;;;;;5013817;28;20461;-63
2021/12/01 07:11:03;;;;;;;1.17;1.00;;;6.50;98.00;;;;;;5013035;28;20559;-63
2021/12/01 07:13:32;;;;;;;1.20;0.90;;;6.50;98.00;;;;;;5013407;28;20461;-64
2021/12/01 07:16:01;;;;;;;1.10;0.90;;;6.50;98.00;;;;;;5013440;28;20454;-64
2021/12/01 07:18:28;;;;;;;1.10;0.93;;;6.60;98.00;;;;;;5013593;28;20465;-63
2021/12/01 07:20:55;;;;;;;1.10;1.00;;;6.60;98.00;;;;;;5013608;28;20513;-63
2021/12/01 07:23:23;;;;;;;1.20;0.93;;;6.60;98.00;;;;;;5013478;28;20855;-63
2021/12/01 07:25:50;;;;;;;1.20;1.00;;;6.70;98.00;;;;;;5012156;28;20942;-63
2021/12/01 07:28:17;;;;;;;1.87;1.20;;;6.80;98.00;;;;;;5013408;28;21153;-63
2021/12/01 07:30:45;;;;;;;1.20;1.07;;;6.90;98.00;;;;;;5011959;28;20492;-63
2021/12/01 07:33:14;;;;;;;1.40;1.30;;;7.00;98.00;;;;;;5013171;28;20466;-63
2021/12/01 07:35:41;;;;;;;1.30;1.17;;;7.00;98.00;;;;;;5013189;28;20512;-63
2021/12/01 07:38:08;;;;;;;1.17;1.00;;;7.10;98.00;;;;;;5013092;28;20466;-63
2021/12/01 07:40:35;;;;;;;1.20;1.00;;;7.10;98.00;;;;;;5012985;28;20466;-63
2021/12/01 07:43:03;;;;;;;1.17;0.90;;;7.20;98.00;;;;;;5012806;28;20528;-63
2021/12/01 07:45:31;;;;;;;1.37;1.20;;;7.20;98.00;;;;;;5013246;28;20460;-64
2021/12/01 07:47:59;;;;;;;1.17;1.00;;;7.30;98.00;;;;;;5012883;28;20588;-63
2021/12/01 07:50:27;;;;;;;1.20;1.00;;;7.40;98.00;;;;;;5012874;28;20493;-63
2021/12/01 07:52:54;;;;;;;1.20;1.00;;;7.50;98.00;;;;;;5012700;28;20525;-63
2021/12/01 07:55:21;;;;;;;1.20;1.20;;;7.50;98.00;;;;;;5012824;28;20461;-64
2021/12/01 07:57:48;;;;;;;2.27;1.20;;;7.50;98.00;;;;;;5011268;28;20546;-63
2021/12/01 08:00:16;;;;;;;1.20;1.00;;;7.60;98.00;;;;;;5012684;28;20458;-64
2021/12/01 08:02:45;;;;;;;1.20;1.00;;;7.60;98.00;;;;;;5012544;28;20872;-62
2021/12/01 08:05:12;;;;;;;1.20;1.00;;;7.60;98.00;;;;;;5012584;28;20954;-63
2021/12/01 08:07:41;;;;;;;1.20;1.00;;;7.60;98.00;;;;;;5013023;28;20474;-63
2021/12/01 08:10:10;;;;;;;1.20;1.00;;;7.60;98.00;;;;;;5013329;28;20508;-64
2021/12/01 08:12:38;;;;;;;1.20;1.00;;;7.70;98.00;;;;;;5013495;28;20464;-63
2021/12/01 08:15:08;;;;;;;2.07;1.17;;;7.80;98.00;;;;;;5013451;28;20457;-64
2021/12/01 08:17:35;;;;;;;1.20;1.00;;;7.90;98.00;;;;;;5012110;28;20465;-62
2021/12/01 08:20:03;;;;;;;1.20;0.90;;;7.90;98.00;;;;;;5013092;28;20948;-63
2021/12/01 08:22:31;;;;;;;1.20;1.00;;;8.00;98.00;;;;;;5013160;28;20776;-61
2021/12/01 08:24:59;;;;;;;1.20;1.00;;;8.10;98.00;;;;;;5012932;28;20463;-62
2021/12/01 08:27:26;;;;;;;1.20;0.90;;;8.10;98.00;;;;;;5008707;28;20467;-61
2021/12/01 08:29:54;;;;;;;1.20;1.00;;;8.20;98.00;;;;;;5009799;28;20466;-63
2021/12/01 08:32:21;;;;;;;1.20;1.00;;;8.30;98.00;;;;;;5010247;28;20471;-64
2021/12/01 08:34:54;;;;;;;1.30;1.10;;;8.30;98.00;;;;;;5010118;28;20459;-63
2021/12/01 08:37:22;;;;;;;1.20;1.00;;;8.30;98.00;;;;;;5009975;28;20554;-63
2021/12/01 08:39:50;;;;;;;1.20;1.00;;;8.40;98.00;;;;;;5010025;28;20463;-63
2021/12/01 08:42:20;;;;;;;1.20;1.00;;;8.30;98.00;;;;;;5009759;28;20488;-63
2021/12/01 08:44:48;;;;;;;1.20;1.00;;;8.30;98.00;;;;;;5009580;28;20463;-62
2021/12/01 08:47:17;;;;;;;1.20;1.00;;;8.30;98.00;;;;;;5009507;28;20504;-63
2021/12/01 08:49:45;;;;;;;1.20;1.00;;;8.40;98.00;;;;;;5008205;28;20518;-63
2021/12/01 08:52:12;;;;;;;1.20;1.00;;;8.40;98.00;;;;;;5010068;28;20532;-63
2021/12/01 08:54:40;;;;;;;1.20;0.90;;;8.40;98.00;;;;;;5006623;28;21094;-63
2021/12/01 08:57:07;;;;;;;1.20;1.00;;;8.40;98.00;;;;;;5011925;28;21015;-65
2021/12/01 08:59:36;;;;;;;1.20;1.00;;;9.00;98.00;;;;;;5012142;28;20458;-63
2021/12/01 09:02:03;;;;;;;1.20;1.00;;;9.90;98.00;;;;;;5011928;28;20471;-64
2021/12/01 09:04:31;;;;;;;1.20;1.00;;;10.60;98.00;;;;;;5012442;28;20539;-64
2021/12/01 09:06:58;;;;;;;1.20;1.00;;;10.80;98.00;;;;;;5007988;28;20585;-65
2021/12/01 09:09:25;;;;;;;1.20;1.00;;;11.40;98.00;;;;;;5007885;28;20862;-62
2021/12/01 09:11:53;;;;;;;1.20;1.10;;;10.90;98.00;;;;;;5009634;28;20499;-64
2021/12/01 09:14:23;;;;;;;1.20;1.00;;;10.40;98.00;;;;;;5009676;28;20457;-65
2021/12/01 09:16:53;;;;;;;1.20;1.00;;;10.20;98.00;;;;;;5009442;28;20502;-64
2021/12/01 09:19:21;;;;;;;1.20;1.00;;;9.80;98.00;;;;;;5009674;28;20460;-65
2021/12/01 09:21:48;;;;;;;1.20;1.00;;;9.60;98.00;;;;;;5009685;28;20471;-63
2021/12/01 09:24:16;;;;;;;1.20;1.00;;;9.40;98.00;;;;;;5009531;28;20470;-63
2021/12/01 09:26:44;;;;;;;1.20;1.10;;;9.40;98.00;;;;;;5009320;28;20512;-63
2021/12/01 09:29:11;;;;;;;1.20;1.10;;;9.40;98.00;;;;;;5009483;28;20458;-64
2021/12/01 09:31:38;;;;;;;1.30;1.20;;;9.50;98.00;;;;;;5009608;28;20834;-64
2021/12/01 09:34:07;;;;;;;1.20;1.00;;;9.40;98.00;;;;;;5010517;28;20511;-62
2021/12/01 09:36:34;;;;;;;1.20;1.00;;;9.40;98.00;;;;;;5016107;28;20867;-63
2021/12/01 09:39:02;;;;;;;1.20;1.00;;;9.40;98.00;;;;;;5016026;28;20468;-63
2021/12/01 09:41:30;;;;;;;1.20;1.00;;;9.40;98.00;;;;;;5016111;28;20988;-64
2021/12/01 09:43:57;;;;;;;1.20;0.90;;;9.40;98.00;;;;;;5016405;28;20464;-63
2021/12/01 09:46:25;;;;;;;1.20;1.00;;;9.50;98.00;;;;;;5016313;28;20870;-64
2021/12/01 09:48:54;;;;;;;1.20;1.00;;;9.50;98.00;;;;;;5015736;28;20513;-63
2021/12/01 09:51:22;;;;;;;1.20;1.00;;;9.50;98.00;;;;;;5010583;28;20498;-62
2021/12/01 09:53:50;;;;;;;1.20;1.00;;;9.50;98.00;;;;;;5016237;28;20520;-63
2021/12/01 09:56:17;;;;;;;1.20;0.90;;;9.40;98.00;;;;;;5015508;28;20936;-64
2021/12/01 09:58:44;;;;;;;1.20;1.00;;;9.50;98.00;;;;;;5016063;28;20461;-64
2021/12/01 10:01:14;;;;;;;1.20;1.00;;;9.60;98.00;;;;;;5015769;28;20508;-65
2021/12/01 10:03:42;;;;;;;1.30;1.07;;;9.60;98.00;;;;;;5015975;28;20485;-63
2021/12/01 10:06:11;;;;;;;1.20;0.90;;;9.60;98.00;;;;;;5015930;28;20548;-64
2021/12/01 10:08:41;;;;;;;1.20;1.00;;;9.60;98.00;;;;;;5015890;28;20881;-65
2021/12/01 10:11:12;;;;;;;1.20;1.00;;;9.60;98.00;;;;;;5015432;28;20486;-65
2021/12/01 10:13:41;;;;;;;1.20;1.00;;;9.60;98.00;;;;;;5015833;28;20518;-65
2021/12/01 10:16:10;;;;;;;1.20;1.00;;;9.60;98.00;;;;;;5015889;28;20854;-64
2021/12/01 10:18:40;;;;;;;1.20;0.90;;;9.60;98.00;;;;;;5016458;28;20462;-64
2021/12/01 10:23:56;;;;;;;1.20;1.00;;;9.70;98.00;;;;;;5015494;28;20473;-66
2021/12/01 10:26:27;;;;;;;1.20;1.00;;;9.70;98.00;;;;;;5015714;28;20518;-65
2021/12/01 10:28:55;;;;;;;1.20;0.90;;;9.80;98.00;;;;;;5015329;28;20458;-64
2021/12/01 10:31:42;;;;;;;1.20;1.10;;;9.80;98.00;;;;;;5015221;28;20558;-65
2021/12/01 10:34:25;;;;;;;1.20;0.90;;;9.90;98.00;;;;;;5015345;28;20470;-65
2021/12/01 10:37:09;;;;;;;1.20;1.00;;;9.90;98.00;;;;;;5015185;28;20829;-65
2021/12/01 10:39:39;;;;;;;1.20;1.00;;;9.90;98.00;;;;;;5015458;28;20472;-65
2021/12/01 10:42:08;;;;;;;1.20;1.00;;;9.90;98.00;;;;;;5015290;28;20503;-66
2021/12/01 10:44:38;;;;;;;1.20;1.00;;;10.00;98.00;;;;;;5015595;28;20802;-66
2021/12/01 10:47:10;;;;;;;1.77;1.00;;;10.00;98.00;;;;;;5012412;28;20486;-66
2021/12/01 10:49:40;;;;;;;1.20;1.00;;;10.00;98.00;;;;;;5009944;28;20559;-66
2021/12/01 10:52:08;;;;;;;1.20;1.00;;;10.00;98.00;;;;;;5012059;28;20502;-65
2021/12/01 10:54:37;;;;;;;1.20;1.00;;;10.10;98.00;;;;;;5012340;28;20463;-67
2021/12/01 10:57:26;;;;;;;1.20;0.90;;;10.10;98.00;;;;;;5012017;28;20474;-65
2021/12/01 10:59:53;;;;;;;1.20;1.00;;;10.20;98.00;;;;;;5007622;28;20519;-66
2021/12/01 11:02:22;;;;;;;1.20;1.00;;;10.30;98.00;;;;;;5011444;28;20493;-67
2021/12/01 11:04:51;;;;;;;1.20;1.00;;;10.30;98.00;;;;;;5012413;28;20544;-65
2021/12/01 11:07:26;;;;;;;1.20;0.97;;;10.30;98.00;;;;;;5011545;28;21048;-65
2021/12/01 11:10:13;;;;;;;1.20;1.00;;;10.30;98.00;;;;;;5011807;28;20990;-65
2021/12/01 11:12:41;;;;;;;1.20;0.90;;;10.30;98.00;;;;;;5011726;28;20491;-65
2021/12/01 11:15:19;;;;;;;1.20;1.00;;;10.40;98.00;;;;;;5011447;28;20461;-65
2021/12/01 11:17:47;;;;;;;1.20;1.00;;;10.40;98.00;;;;;;5011559;28;20466;-65
2021/12/01 11:20:34;;;;;;;1.20;0.90;;;10.60;98.00;;;;;;5011808;28;20470;-65
2021/12/01 11:23:14;;;;;;;1.20;1.00;;;10.70;98.00;;;;;;5011844;28;20527;-67
2021/12/01 11:25:44;;;;;;;1.20;1.00;;;10.70;98.00;;;;;;5011588;28;20528;-66
2021/12/01 11:28:14;;;;;;;1.20;0.97;;;10.90;98.00;;;;;;5011392;28;20462;-66
2021/12/01 11:30:41;;;;;;;1.20;1.00;;;10.80;98.00;;;;;;5011374;28;20897;-65
2021/12/01 11:33:11;;;;;;;1.40;1.03;;;10.80;98.00;;;;;;5011321;28;20456;-65
2021/12/01 11:35:42;;;;;;;1.20;1.00;;;10.90;98.00;;;;;;5011299;28;20524;-67
2021/12/01 11:38:10;;;;;;;1.20;1.00;;;10.90;98.00;;;;;;5011204;28;20464;-65
2021/12/01 11:40:39;;;;;;;1.20;1.00;;;10.90;98.00;;;;;;5011386;28;20515;-65
2021/12/01 11:43:10;;;;;;;1.20;1.00;;;10.90;98.00;;;;;;5011050;28;20463;-66
2021/12/01 11:45:38;;;;;;;1.20;1.00;;;10.90;98.00;;;;;;5011090;28;20533;-65
2021/12/01 11:48:10;;;;;;;1.20;1.00;;;10.80;98.00;;;;;;5011212;28;20467;-65
2021/12/01 11:50:44;;;;;;;1.20;1.00;;;10.80;98.00;;;;;;5009127;28;20462;-66
2021/12/01 11:53:23;;;;;;;1.20;1.00;;;10.80;98.00;;;;;;5011135;28;20469;-66
2021/12/01 11:56:01;;;;;;;1.20;1.00;;;10.80;98.00;;;;;;5011000;28;20838;-67
2021/12/01 11:58:59;;;;;;;1.20;1.00;;;10.90;98.00;;;;;;5010448;28;20544;-65
2021/12/01 12:01:55;;;;;;;1.20;1.00;;;10.90;98.00;;;;;;5009937;28;20466;-65
2021/12/01 12:04:45;;;;;;;1.20;1.00;;;11.00;98.00;;;;;;5003328;28;20474;-67
2021/12/01 12:07:21;;;;;;;1.20;1.20;;;11.10;98.00;;;;;;5007785;28;20952;-66
2021/12/01 12:10:16;;;;;;;1.20;1.00;;;11.10;98.00;;;;;;5011091;28;20462;-65
2021/12/01 12:12:45;;;;;;;1.20;1.00;;;11.20;98.00;;;;;;4986967;28;20545;-65
2021/12/01 12:15:45;;;;;;;1.20;1.00;;;11.10;98.00;;;;;;5010762;28;20812;-65
2021/12/01 12:18:34;;;;;;;1.20;1.00;;;11.10;98.00;;;;;;5003885;28;20522;-65
2021/12/01 12:21:15;;;;;;;1.20;0.90;;;11.10;98.00;;;;;;5010406;28;20463;-65
2021/12/01 12:23:45;;;;;;;1.20;1.00;;;11.00;98.00;;;;;;5010704;28;20975;-65
2021/12/01 12:26:12;;;;;;;1.20;1.00;;;10.90;98.00;;;;;;5010674;28;20510;-65
2021/12/01 12:28:41;;;;;;;1.20;1.00;;;10.80;98.00;;;;;;5010424;28;20455;-65
2021/12/01 12:31:27;;;;;;;1.20;1.10;;;10.90;98.00;;;;;;5010426;28;20484;-64
2021/12/01 12:33:56;;;;;;;1.20;1.00;;;10.90;98.00;;;;;;5010376;28;20460;-64
2021/12/01 12:36:37;;;;;;;1.20;1.00;;;10.90;98.00;;;;;;5010248;28;20491;-65
2021/12/01 12:39:06;;;;;;;1.20;1.00;;;10.90;98.00;;;;;;5010195;28;20476;-65
2021/12/01 12:41:53;;;;;;;1.20;1.00;;;10.90;98.00;;;;;;5010251;28;20467;-65
2021/12/01 12:44:31;;;;;;;1.20;1.00;;;10.90;98.00;;;;;;5009692;28;20486;-65
2021/12/01 12:47:05;;;;;;;1.20;1.00;;;11.00;98.00;;;;;;5009658;28;20904;-65
2021/12/01 12:49:41;;;;;;;1.20;1.00;;;11.10;98.00;;;;;;5007384;28;20969;-65
2021/12/01 12:52:31;;;;;;;1.20;1.00;;;11.00;98.00;;;;;;5009551;28;20500;-65
2021/12/01 12:55:00;;;;;;;1.20;1.00;;;11.00;98.00;;;;;;5010029;28;20831;-67
2021/12/01 12:57:54;;;;;;;1.80;1.10;;;10.90;98.00;;;;;;5008629;28;20474;-64
2021/12/01 13:00:25;;;;;;;1.20;1.00;;;11.00;98.00;;;;;;5002793;28;20460;-65
2021/12/01 13:02:55;;;;;;;1.20;1.00;;;11.10;98.00;;;;;;5009838;28;20977;-65
2021/12/01 13:05:34;;;;;;;1.20;0.90;;;11.10;98.00;;;;;;5009795;28;20461;-64
2021/12/01 13:08:03;;;;;;;1.20;1.00;;;11.20;98.00;;;;;;5012246;28;21014;-64
2021/12/01 13:10:38;;;;;;;1.20;1.00;;;11.10;98.00;;;;;;5011733;28;20837;-65
2021/12/01 13:13:09;;;;;;;1.30;1.00;;;11.10;98.00;;;;;;5011906;28;20488;-65
2021/12/01 13:15:41;;;;;;;1.20;1.00;;;11.00;98.00;;;;;;5012181;28;20970;-65